Time;durP1;ratioP1;P1;durP2;ratioP2;P2;SDS_P1;SDS_P2;PMS_P1;PMS_P2;Temp;Humidity;BMP_temperature;BMP_pressure;BME280_temperature;BME280_humidity;BME280_pressure;Samples;Min_cycle;Max_cycle;Signal;HPM_P1;HPM_P2
2022/10/09 00:00:00;;;;;;;2.35;1.60;;;;;;;22.34;44.61;102523.16;5009804;28;20042;-68
2022/10/09 00:02:25;;;;;;;2.70;1.75;;;;;;;22.29;44.95;102511.19;5014790;28;20058;-68
2022/10/09 00:04:51;;;;;;;2.13;1.60;;;;;;;22.33;44.83;102516.19;5011009;28;20123;-68
2022/10/09 00:07:16;;;;;;;1.65;1.50;;;;;;;22.33;44.70;102519.66;5001675;28;20653;-68
2022/10/09 00:09:42;;;;;;;2.95;1.60;;;;;;;22.31;44.51;102522.47;5001930;28;20044;-68
2022/10/09 00:12:07;;;;;;;4.00;1.70;;;;;;;22.31;44.75;102527.78;5014595;28;20045;-68
2022/10/09 00:14:32;;;;;;;3.30;1.80;;;;;;;22.28;44.98;102517.47;5015741;28;20034;-68
2022/10/09 00:16:58;;;;;;;3.80;1.83;;;;;;;22.30;44.96;102530.59;5016279;28;20151;-68
2022/10/09 00:19:23;;;;;;;1.75;1.33;;;;;;;22.27;44.72;102534.41;5014493;28;20719;-68
2022/10/09 00:21:49;;;;;;;2.10;1.23;;;;;;;22.30;44.55;102538.56;5018815;28;20034;-67
2022/10/09 00:24:14;;;;;;;2.20;1.42;;;;;;;22.27;45.01;102526.44;4986390;28;20052;-68
2022/10/09 00:26:40;;;;;;;3.58;1.85;;;;;;;22.29;44.74;102529.75;5000189;28;20038;-68
2022/10/09 00:29:05;;;;;;;3.33;1.45;;;;;;;22.29;44.99;102526.28;5020168;28;20630;-68
2022/10/09 00:31:31;;;;;;;2.20;1.42;;;;;;;22.27;44.88;102534.41;5013391;28;20069;-69
2022/10/09 00:33:56;;;;;;;2.40;1.30;;;;;;;22.28;45.07;102533.41;5013768;28;20156;-68
2022/10/09 00:36:24;;;;;;;2.58;1.50;;;;;;;22.28;44.84;102529.91;5016755;28;20041;-68
2022/10/09 00:38:50;;;;;;;3.65;1.50;;;;;;;22.26;44.74;102530.09;5015051;28;20045;-68
2022/10/09 00:41:28;;;;;;;2.65;1.65;;;;;;;22.27;45.04;102529.09;4975672;28;20049;-69
2022/10/09 00:43:58;;;;;;;1.92;1.48;;;;;;;22.24;45.04;102529.38;5018082;28;20038;-69
2022/10/09 00:46:35;;;;;;;2.10;1.55;;;;;;;22.21;44.85;102520.91;5018021;28;20044;-69
2022/10/09 00:49:21;;;;;;;1.55;1.35;;;;;;;22.24;44.88;102531.19;5021068;28;20639;-69
2022/10/09 00:51:48;;;;;;;1.88;1.27;;;;;;;22.24;44.86;102531.19;5015208;28;20045;-69
2022/10/09 00:54:19;;;;;;;3.92;1.50;;;;;;;22.26;45.03;102539.84;5010172;28;20033;-69
2022/10/09 00:56:45;;;;;;;1.52;1.40;;;;;;;22.24;44.86;102541.81;4986435;28;20052;-68
2022/10/09 00:59:11;;;;;;;2.00;1.42;;;;;;;22.20;44.80;102538.63;5018326;28;20364;-68
2022/10/09 01:01:38;;;;;;;2.08;1.50;;;;;;;22.21;44.85;102531.50;5007063;28;20574;-68
2022/10/09 01:04:03;;;;;;;3.40;1.40;;;;;;;22.21;44.98;102534.16;5014832;28;20033;-68
2022/10/09 01:07:03;;;;;;;3.22;1.70;;;;;;;22.21;44.65;102550.09;4998491;28;20041;-68
2022/10/09 01:09:46;;;;;;;2.17;1.80;;;;;;;22.21;45.01;102545.59;5014071;28;20043;-68
2022/10/09 01:12:33;;;;;;;1.90;1.15;;;;;;;22.19;45.04;102546.75;5012237;28;20115;-68
2022/10/09 01:15:27;;;;;;;1.40;1.30;;;;;;;22.20;44.79;102543.13;4999471;28;20425;-68
2022/10/09 01:18:10;;;;;;;3.47;1.50;;;;;;;22.20;44.90;102549.25;5014436;28;20045;-68
2022/10/09 01:21:01;;;;;;;2.58;1.38;;;;;;;22.22;44.84;102549.09;5012978;28;20052;-68
2022/10/09 01:23:40;;;;;;;2.03;1.20;;;;;;;22.21;44.79;102542.97;5015141;28;20476;-68
2022/10/09 01:26:15;;;;;;;2.08;1.25;;;;;;;22.20;44.84;102541.28;5014647;28;20034;-71
2022/10/09 01:28:46;;;;;;;2.30;1.60;;;;;;;22.19;44.85;102541.44;4990334;28;20886;-68
2022/10/09 01:31:13;;;;;;;2.83;1.50;;;;;;;22.10;44.82;102531.78;5019456;28;20123;-68
2022/10/09 01:33:39;;;;;;;1.77;1.30;;;;;;;22.13;45.07;102523.50;5013879;28;20048;-68
2022/10/09 01:36:07;;;;;;;3.08;1.60;;;;;;;22.18;44.95;102526.50;5018032;28;20053;-67
2022/10/09 01:38:33;;;;;;;4.40;1.52;;;;;;;22.14;44.97;102528.66;4995299;28;20040;-68
2022/10/09 01:41:01;;;;;;;2.03;1.58;;;;;;;22.15;44.72;102527.66;5014682;28;20075;-68
2022/10/09 01:43:26;;;;;;;2.55;1.30;;;;;;;22.15;44.83;102527.66;5016883;28;20043;-68
2022/10/09 01:46:12;;;;;;;1.95;1.15;;;;;;;22.18;44.78;102529.16;4989320;28;20049;-68
2022/10/09 01:48:38;;;;;;;2.70;1.38;;;;;;;22.07;44.73;102510.81;5014260;28;20080;-68
2022/10/09 01:51:04;;;;;;;1.80;1.48;;;;;;;22.13;45.00;102523.50;5009148;28;20148;-68
2022/10/09 01:53:32;;;;;;;1.70;1.20;;;;;;;22.11;44.93;102526.31;5012207;28;20049;-68
2022/10/09 01:56:01;;;;;;;2.83;1.45;;;;;;;22.15;45.04;102521.53;5012218;28;20048;-68
2022/10/09 01:58:37;;;;;;;1.83;1.20;;;;;;;22.13;44.69;102524.34;5012248;28;20442;-68
2022/10/09 02:01:25;;;;;;;1.95;1.67;;;;;;;22.12;44.95;102519.19;4981658;28;20567;-69
2022/10/09 02:03:54;;;;;;;1.52;1.40;;;;;;;22.11;44.79;102520.19;5012783;28;20041;-68
2022/10/09 02:06:19;;;;;;;1.92;1.58;;;;;;;22.10;44.72;102516.69;5014470;28;20391;-68
2022/10/09 02:08:49;;;;;;;4.95;1.50;;;;;;;22.14;45.03;102520.69;5009877;28;20050;-68
2022/10/09 02:11:15;;;;;;;2.70;1.08;;;;;;;22.11;44.86;102514.88;5010498;28;20046;-68
2022/10/09 02:13:43;;;;;;;2.00;1.58;;;;;;;22.09;45.29;102515.03;5006567;28;20895;-68
2022/10/09 02:16:32;;;;;;;2.13;1.48;;;;;;;22.08;44.96;102505.38;5010221;28;20048;-68
2022/10/09 02:19:08;;;;;;;2.42;1.35;;;;;;;22.09;45.14;102507.06;4994781;28;20045;-68
2022/10/09 02:21:43;;;;;;;1.75;1.45;;;;;;;22.06;44.99;102507.34;5016498;28;20040;-68
2022/10/09 02:24:14;;;;;;;1.90;1.45;;;;;;;22.07;44.99;102498.41;5016715;28;20114;-68
2022/10/09 02:26:40;;;;;;;2.45;1.65;;;;;;;22.10;44.77;102502.59;5017659;28;20033;-68
2022/10/09 02:29:06;;;;;;;2.35;1.55;;;;;;;22.08;45.01;102497.41;5012887;28;20037;-68
2022/10/09 02:31:36;;;;;;;1.83;1.35;;;;;;;22.07;45.25;102500.22;5014095;28;21324;-68
2022/10/09 02:34:04;;;;;;;2.22;1.30;;;;;;;22.06;45.01;102499.38;4987818;28;21970;-68
2022/10/09 02:36:30;;;;;;;1.83;1.42;;;;;;;22.07;44.86;102508.19;5010379;28;20053;-69
2022/10/09 02:38:56;;;;;;;1.58;1.48;;;;;;;22.06;45.16;102507.34;5015344;28;20046;-68
2022/10/09 02:41:23;;;;;;;2.80;1.92;;;;;;;22.05;45.26;102502.19;4998267;28;20057;-68
2022/10/09 02:43:49;;;;;;;1.65;1.25;;;;;;;22.07;45.19;102508.19;5014745;28;20037;-68
2022/10/09 02:46:15;;;;;;;2.92;1.77;;;;;;;22.05;44.70;102502.19;4993462;28;20045;-68
2022/10/09 02:48:41;;;;;;;3.10;1.67;;;;;;;22.05;45.13;102500.38;4994450;28;20586;-68
2022/10/09 02:51:06;;;;;;;2.05;1.30;;;;;;;22.03;45.12;102500.50;5000134;28;20041;-68
2022/10/09 02:53:32;;;;;;;1.77;1.30;;;;;;;22.02;45.00;102505.97;5015870;28;20048;-68
2022/10/09 02:55:57;;;;;;;1.30;1.20;;;;;;;22.04;45.16;102503.97;5012705;28;20425;-68
2022/10/09 02:58:23;;;;;;;2.55;1.73;;;;;;;22.05;44.95;102502.19;5012478;28;20057;-68
2022/10/09 03:00:52;;;;;;;1.33;1.23;;;;;;;22.05;45.01;102505.69;5015099;28;20037;-68
2022/10/09 03:03:19;;;;;;;1.30;1.20;;;;;;;22.03;44.81;102504.97;5015668;28;20045;-68
2022/10/09 03:05:45;;;;;;;1.88;1.40;;;;;;;21.97;45.07;102500.28;4998236;28;20188;-68
2022/10/09 03:08:11;;;;;;;2.17;1.55;;;;;;;21.95;45.10;102500.44;5001900;28;20733;-68
2022/10/09 03:10:37;;;;;;;2.67;1.60;;;;;;;22.00;45.13;102514.06;5015060;28;20045;-68
2022/10/09 03:13:03;;;;;;;4.03;1.83;;;;;;;22.01;45.17;102505.13;4996817;28;20102;-69
2022/10/09 03:15:32;;;;;;;1.65;1.50;;;;;;;22.02;45.08;102500.66;5014903;28;20390;-70
2022/10/09 03:17:58;;;;;;;2.13;1.70;;;;;;;21.97;45.05;102498.47;5018496;28;20584;-68
2022/10/09 03:20:23;;;;;;;3.00;1.60;;;;;;;22.00;45.01;102502.63;5012931;28;20480;-68
2022/10/09 03:22:49;;;;;;;2.50;1.70;;;;;;;21.98;45.08;102499.31;4998798;28;20048;-68
2022/10/09 03:25:14;;;;;;;1.80;1.42;;;;;;;21.99;45.06;102504.47;5002776;28;20061;-68
2022/10/09 03:27:40;;;;;;;2.05;1.50;;;;;;;21.95;45.15;102491.66;5015462;28;20029;-68
2022/10/09 03:30:06;;;;;;;2.47;1.42;;;;;;;21.96;45.23;102499.47;5014459;28;20111;-68
2022/10/09 03:32:32;;;;;;;2.03;1.42;;;;;;;21.97;44.85;102493.16;5016485;28;20050;-68
2022/10/09 03:34:57;;;;;;;2.33;1.60;;;;;;;21.95;44.97;102500.44;4997564;28;20040;-69
2022/10/09 03:37:23;;;;;;;2.13;1.45;;;;;;;21.97;45.16;102506.44;4996907;28;20057;-69
2022/10/09 03:39:48;;;;;;;2.55;1.45;;;;;;;21.94;45.26;102505.91;5003645;28;20408;-70
2022/10/09 03:42:14;;;;;;;2.35;1.30;;;;;;;21.96;45.21;102504.75;5001175;28;20096;-69
2022/10/09 03:44:39;;;;;;;1.50;1.40;;;;;;;21.95;45.05;102499.63;5016497;28;20571;-69
2022/10/09 03:47:05;;;;;;;1.77;1.38;;;;;;;21.94;44.94;102509.41;5000064;28;20045;-69
2022/10/09 03:49:31;;;;;;;2.42;1.48;;;;;;;21.95;44.91;102511.06;5018321;28;20048;-69
2022/10/09 03:51:56;;;;;;;2.13;1.63;;;;;;;21.97;45.22;102506.44;5000087;28;20044;-69
2022/10/09 03:54:22;;;;;;;2.17;1.63;;;;;;;21.97;44.72;102500.28;5017164;28;22308;-69
2022/10/09 03:56:47;;;;;;;2.60;1.70;;;;;;;21.94;44.83;102505.91;4998841;28;20055;-69
2022/10/09 03:59:13;;;;;;;1.67;1.52;;;;;;;21.95;44.99;102516.38;5006082;28;20091;-67
2022/10/09 04:01:38;;;;;;;2.45;1.38;;;;;;;21.94;44.98;102511.22;4999557;28;20041;-69
2022/10/09 04:04:04;;;;;;;2.00;1.73;;;;;;;21.93;45.04;102517.50;4995931;28;20038;-69
2022/10/09 04:06:29;;;;;;;2.95;1.90;;;;;;;21.92;45.31;102515.84;5011735;28;20760;-67
2022/10/09 04:08:55;;;;;;;3.42;1.83;;;;;;;21.93;44.87;102509.56;5013968;28;20041;-69
2022/10/09 04:11:21;;;;;;;3.83;1.80;;;;;;;21.90;44.92;102513.34;5016578;28;20034;-69
2022/10/09 04:13:47;;;;;;;1.73;1.63;;;;;;;21.90;44.97;102509.81;4982494;28;20048;-68
2022/10/09 04:16:12;;;;;;;2.50;1.83;;;;;;;21.89;44.99;102505.50;5000926;28;20041;-68
2022/10/09 04:18:39;;;;;;;2.47;1.65;;;;;;;21.89;44.84;102505.50;4998074;28;20406;-68
2022/10/09 04:21:05;;;;;;;2.08;1.63;;;;;;;21.87;45.12;102507.50;5013303;28;20406;-68
2022/10/09 04:23:30;;;;;;;1.95;1.77;;;;;;;21.86;45.33;102504.00;5015125;28;20044;-69
2022/10/09 04:25:58;;;;;;;1.90;1.77;;;;;;;21.87;45.15;102508.31;5018134;28;20046;-69
2022/10/09 04:28:27;;;;;;;2.78;1.90;;;;;;;21.88;45.21;102515.28;4998729;28;21311;-69
2022/10/09 04:30:53;;;;;;;1.88;1.60;;;;;;;21.86;44.95;102513.78;4987406;28;20770;-68
2022/10/09 04:33:19;;;;;;;3.63;1.67;;;;;;;21.87;45.05;102507.50;5014329;28;20060;-68
2022/10/09 04:35:48;;;;;;;4.45;1.77;;;;;;;21.87;44.92;102508.31;5011422;28;20041;-68
2022/10/09 04:38:14;;;;;;;3.30;1.90;;;;;;;21.85;44.94;102504.16;5014423;28;20132;-68
2022/10/09 04:40:40;;;;;;;3.22;1.90;;;;;;;21.83;45.34;102499.00;5014066;28;20048;-68
2022/10/09 04:43:05;;;;;;;1.92;1.80;;;;;;;21.85;45.19;102498.84;5013119;28;20060;-68
2022/10/09 04:45:31;;;;;;;1.85;1.65;;;;;;;21.87;44.94;102502.19;5001235;28;20748;-68
2022/10/09 04:47:56;;;;;;;1.70;1.60;;;;;;;21.83;45.16;102498.19;5001365;28;20033;-68
2022/10/09 04:50:22;;;;;;;3.72;1.90;;;;;;;21.83;45.11;102501.66;5012146;28;20052;-68
2022/10/09 04:52:56;;;;;;;2.97;1.75;;;;;;;21.83;44.92;102499.00;5016198;28;20543;-68
2022/10/09 04:55:22;;;;;;;2.45;1.52;;;;;;;21.80;45.19;102493.19;5008382;28;20045;-68
2022/10/09 04:57:47;;;;;;;2.72;1.70;;;;;;;21.79;45.29;102499.47;5012459;28;20431;-69
2022/10/09 05:00:13;;;;;;;2.63;1.90;;;;;;;21.85;44.95;102498.84;4995283;28;20057;-69
2022/10/09 05:02:39;;;;;;;3.60;2.10;;;;;;;21.83;44.88;102504.31;4996099;28;20048;-69
2022/10/09 05:05:04;;;;;;;2.10;1.70;;;;;;;21.80;45.24;102498.50;4996508;28;20033;-69
2022/10/09 05:07:30;;;;;;;1.85;1.65;;;;;;;21.76;44.80;102491.84;5016067;28;20035;-69
2022/10/09 05:09:56;;;;;;;2.35;1.77;;;;;;;21.82;44.97;102502.66;4992206;28;20513;-69
2022/10/09 05:12:21;;;;;;;2.92;1.85;;;;;;;21.77;45.14;102496.97;5011544;28;20572;-69
2022/10/09 05:14:47;;;;;;;2.42;1.90;;;;;;;21.79;44.90;102489.69;5010614;28;20038;-69
2022/10/09 05:17:12;;;;;;;2.38;1.98;;;;;;;21.76;45.21;102494.47;5008365;28;20049;-68
2022/10/09 05:19:38;;;;;;;3.03;1.80;;;;;;;21.74;45.06;102496.47;4998560;28;20041;-68
2022/10/09 05:22:03;;;;;;;1.90;1.70;;;;;;;21.74;45.18;102493.81;4993420;28;20037;-69
2022/10/09 05:24:29;;;;;;;2.00;1.70;;;;;;;21.77;45.16;102496.16;5010881;28;20030;-68
2022/10/09 05:26:54;;;;;;;3.17;1.80;;;;;;;21.77;44.94;102496.97;5018907;28;20045;-68
2022/10/09 05:29:20;;;;;;;2.28;1.60;;;;;;;21.71;45.16;102493.09;5012567;28;20049;-68
2022/10/09 05:31:45;;;;;;;2.05;1.88;;;;;;;21.77;44.89;102498.81;4997522;28;20065;-69
2022/10/09 05:34:11;;;;;;;1.50;1.40;;;;;;;21.74;45.29;102499.09;5012866;28;20656;-69
2022/10/09 05:36:36;;;;;;;2.38;1.83;;;;;;;21.73;45.16;102503.59;4980760;28;20558;-69
2022/10/09 05:39:02;;;;;;;2.15;1.65;;;;;;;21.73;44.96;102497.44;5001695;28;20083;-69
2022/10/09 05:41:28;;;;;;;1.95;1.65;;;;;;;21.74;45.13;102501.75;5015221;28;20809;-69
2022/10/09 05:43:54;;;;;;;2.53;1.67;;;;;;;21.75;45.03;102508.72;5015070;28;20132;-70
2022/10/09 05:46:22;;;;;;;2.58;2.15;;;;;;;21.75;45.01;102509.56;5015636;28;20041;-68
2022/10/09 05:48:56;;;;;;;3.72;2.45;;;;;;;21.75;45.12;102506.91;5015182;28;20434;-68
2022/10/09 05:51:25;;;;;;;3.28;2.20;;;;;;;21.73;44.92;102510.69;5016101;28;20041;-69
2022/10/09 05:53:51;;;;;;;3.70;1.90;;;;;;;21.73;45.19;102510.69;4988639;28;20034;-69
2022/10/09 05:56:25;;;;;;;2.38;2.17;;;;;;;21.73;45.01;102510.69;5011532;28;20868;-68
2022/10/09 05:58:56;;;;;;;4.63;2.15;;;;;;;21.73;44.61;102513.34;5007904;28;20472;-68
2022/10/09 06:01:25;;;;;;;3.53;2.00;;;;;;;21.71;45.15;102510.81;5010711;28;20037;-68
2022/10/09 06:03:52;;;;;;;2.33;1.73;;;;;;;21.69;45.02;102513.63;5012076;28;20133;-69
2022/10/09 06:06:20;;;;;;;1.65;1.55;;;;;;;21.67;45.05;102507.66;5009730;28;20513;-68
2022/10/09 06:08:46;;;;;;;3.88;1.90;;;;;;;21.64;44.99;102502.66;4997639;28;20520;-69
2022/10/09 06:11:21;;;;;;;2.42;1.83;;;;;;;21.69;45.19;102505.69;5000542;28;20499;-69
2022/10/09 06:13:47;;;;;;;2.65;2.10;;;;;;;21.66;45.21;102505.97;5013930;28;20171;-69
2022/10/09 06:16:14;;;;;;;3.03;2.00;;;;;;;21.68;45.11;102511.13;5015463;28;20030;-68
2022/10/09 06:18:41;;;;;;;3.47;1.85;;;;;;;21.70;44.78;102506.50;5008865;28;20075;-69
2022/10/09 06:21:07;;;;;;;3.55;1.85;;;;;;;21.69;44.80;102508.31;5015595;28;20382;-68
2022/10/09 06:23:33;;;;;;;2.08;1.88;;;;;;;21.68;45.10;102506.66;5012822;28;20287;-68
2022/10/09 06:26:02;;;;;;;2.53;1.90;;;;;;;21.61;45.27;102505.63;4997516;28;20061;-68
2022/10/09 06:28:29;;;;;;;3.45;2.17;;;;;;;21.66;45.14;102508.63;5004856;28;20432;-68
2022/10/09 06:31:02;;;;;;;3.05;2.00;;;;;;;21.61;44.92;102505.63;5017829;28;20049;-69
2022/10/09 06:33:30;;;;;;;3.47;2.00;;;;;;;21.68;44.97;102514.63;5016569;28;20049;-69
2022/10/09 06:36:01;;;;;;;4.05;1.90;;;;;;;21.64;45.07;102518.56;5018424;28;20047;-68
2022/10/09 06:38:27;;;;;;;2.20;1.92;;;;;;;21.64;45.16;102515.91;5017478;28;20379;-67
2022/10/09 06:40:52;;;;;;;3.05;1.73;;;;;;;21.64;44.96;102513.25;5018189;28;20052;-68
2022/10/09 06:43:18;;;;;;;2.10;1.83;;;;;;;21.67;45.11;102518.25;4994375;28;20049;-68
2022/10/09 06:45:43;;;;;;;2.40;1.90;;;;;;;21.65;45.14;102516.75;5017969;28;20488;-68
2022/10/09 06:48:09;;;;;;;1.95;1.67;;;;;;;21.65;45.00;102520.22;5018807;28;20040;-68
2022/10/09 06:50:35;;;;;;;3.38;1.90;;;;;;;21.61;45.18;102526.81;5016457;28;20038;-68
2022/10/09 06:53:05;;;;;;;2.28;2.00;;;;;;;21.63;45.24;102524.84;5015204;28;20077;-68
2022/10/09 06:55:31;;;;;;;2.65;2.10;;;;;;;21.62;45.15;102525.00;5015747;28;20068;-68
2022/10/09 06:57:57;;;;;;;1.88;1.70;;;;;;;21.66;45.13;102531.66;4998808;28;20045;-68
2022/10/09 07:00:23;;;;;;;2.78;1.90;;;;;;;21.64;44.89;102528.34;4999578;28;20414;-68
2022/10/09 07:02:49;;;;;;;2.70;2.05;;;;;;;21.65;45.13;102532.66;5011160;28;20045;-68
2022/10/09 07:05:15;;;;;;;2.08;1.98;;;;;;;21.62;45.13;102533.78;5014995;28;20056;-68
2022/10/09 07:07:41;;;;;;;2.58;1.90;;;;;;;21.65;45.22;102524.69;5016360;28;20049;-67
2022/10/09 07:10:08;;;;;;;3.20;2.08;;;;;;;21.62;45.00;102522.34;5016249;28;20060;-68
2022/10/09 07:12:37;;;;;;;2.00;1.80;;;;;;;21.63;44.96;102524.00;5014994;28;20048;-68
2022/10/09 07:15:05;;;;;;;3.00;1.80;;;;;;;21.67;44.58;102536.81;4991460;28;20555;-68
2022/10/09 07:17:30;;;;;;;1.75;1.65;;;;;;;21.65;44.71;102532.66;5016523;28;20463;-68
2022/10/09 07:19:56;;;;;;;2.58;1.80;;;;;;;21.68;44.92;102535.00;5013753;28;20060;-68
2022/10/09 07:22:22;;;;;;;1.98;1.77;;;;;;;21.68;45.06;102533.19;5015455;28;20050;-68
2022/10/09 07:24:49;;;;;;;3.58;2.33;;;;;;;21.68;44.76;102535.00;5012899;28;20042;-68
2022/10/09 07:27:15;;;;;;;3.33;2.10;;;;;;;21.65;44.98;102525.53;5017672;28;20049;-68
2022/10/09 07:29:40;;;;;;;2.47;1.88;;;;;;;21.64;44.77;102523.03;5016369;28;20041;-68
2022/10/09 07:32:06;;;;;;;3.22;2.20;;;;;;;21.74;44.77;102533.56;4984258;28;20065;-68
2022/10/09 07:34:31;;;;;;;1.92;1.73;;;;;;;21.76;44.67;102535.09;5016659;28;20037;-68
2022/10/09 07:36:57;;;;;;;2.42;1.90;;;;;;;21.73;44.71;102535.41;5017175;28;20045;-68
2022/10/09 07:39:22;;;;;;;2.00;1.50;;;;;;;21.74;44.95;102542.38;5017487;28;20058;-68
2022/10/09 07:41:51;;;;;;;1.98;1.73;;;;;;;21.77;44.58;102536.75;5000080;28;20045;-68
2022/10/09 07:44:17;;;;;;;3.50;2.13;;;;;;;21.76;44.89;102537.75;5016114;28;20041;-68
2022/10/09 07:46:43;;;;;;;2.88;2.10;;;;;;;21.76;44.74;102539.56;4990616;28;20136;-68
2022/10/09 07:49:08;;;;;;;2.25;1.83;;;;;;;21.80;44.81;102541.75;5014366;28;20048;-68
2022/10/09 07:51:34;;;;;;;3.63;2.13;;;;;;;21.83;44.85;102545.91;5013818;28;20056;-68
2022/10/09 07:54:01;;;;;;;2.40;1.70;;;;;;;21.80;44.80;102548.88;5015336;28;20050;-68
2022/10/09 07:56:32;;;;;;;1.70;1.60;;;;;;;21.79;44.77;102547.22;5013818;28;20443;-67
2022/10/09 07:59:04;;;;;;;2.08;1.80;;;;;;;21.86;44.58;102545.59;5009951;28;20584;-67
2022/10/09 08:01:31;;;;;;;1.88;1.60;;;;;;;21.82;44.70;102542.44;5010625;28;20046;-68
2022/10/09 08:03:57;;;;;;;5.72;2.00;;;;;;;21.84;44.76;102542.28;4980387;28;20041;-68
2022/10/09 08:06:23;;;;;;;2.90;1.77;;;;;;;21.88;44.81;102539.16;5013297;28;20082;-68
2022/10/09 08:08:53;;;;;;;3.35;1.70;;;;;;;21.87;44.67;102541.97;5010584;28;20044;-69
2022/10/09 08:11:21;;;;;;;2.30;1.75;;;;;;;21.90;44.81;102537.22;5011703;28;20049;-68
2022/10/09 08:13:47;;;;;;;3.63;2.30;;;;;;;21.93;44.43;102547.50;5016436;28;20029;-68
2022/10/09 08:16:13;;;;;;;1.83;1.70;;;;;;;21.85;45.06;102539.47;5016844;28;20033;-68
2022/10/09 08:18:39;;;;;;;2.55;1.70;;;;;;;21.88;44.66;102539.16;5015347;28;20065;-68
2022/10/09 08:21:07;;;;;;;2.60;2.10;;;;;;;21.92;44.89;102543.19;4983173;28;20361;-75
2022/10/09 08:23:32;;;;;;;1.77;1.60;;;;;;;21.94;44.71;102543.03;5016165;28;20044;-74
2022/10/09 08:25:58;;;;;;;3.40;1.73;;;;;;;21.92;44.74;102543.19;5018339;28;20041;-75
2022/10/09 08:28:24;;;;;;;1.92;1.67;;;;;;;21.91;44.92;102535.41;5019117;28;20038;-75
2022/10/09 08:30:49;;;;;;;2.42;1.88;;;;;;;21.91;44.80;102538.88;5016308;28;20146;-75
2022/10/09 08:33:20;;;;;;;3.15;1.75;;;;;;;21.94;44.51;102548.34;5015630;28;20056;-76
2022/10/09 08:35:49;;;;;;;2.97;1.63;;;;;;;21.94;44.47;102546.53;5002850;28;20065;-75
2022/10/09 08:38:15;;;;;;;2.90;2.00;;;;;;;21.95;44.55;102544.72;5012421;28;20046;-74
2022/10/09 08:41:18;;;;;;;2.83;1.60;;;;;;;21.95;44.60;102539.41;5019000;28;20044;-75
2022/10/09 08:43:46;;;;;;;1.80;1.60;;;;;;;21.98;44.49;102541.75;5016210;28;20048;-75
2022/10/09 08:46:25;;;;;;;2.78;1.83;;;;;;;21.96;44.49;102541.06;5019552;28;20038;-75
2022/10/09 08:48:52;;;;;;;5.82;2.10;;;;;;;21.95;44.64;102536.75;5017466;28;20037;-72
2022/10/09 08:51:24;;;;;;;2.90;2.00;;;;;;;21.98;44.76;102539.94;5017382;28;20551;-70
2022/10/09 08:54:08;;;;;;;2.53;1.70;;;;;;;21.93;44.72;102526.28;4983358;28;20068;-69
2022/10/09 08:56:34;;;;;;;3.63;1.67;;;;;;;21.99;44.27;102530.16;5014499;28;20045;-70
2022/10/09 08:59:01;;;;;;;2.88;2.08;;;;;;;21.93;44.66;102526.28;5016573;28;20132;-70
2022/10/09 09:01:41;;;;;;;2.70;1.98;;;;;;;21.96;44.85;102530.47;5016569;28;20120;-70
2022/10/09 09:04:09;;;;;;;2.00;1.73;;;;;;;21.95;44.40;102528.78;5011455;28;20048;-70
2022/10/09 09:06:46;;;;;;;2.50;1.77;;;;;;;22.00;44.59;102531.81;5016400;28;20067;-70
2022/10/09 09:09:36;;;;;;;5.13;2.00;;;;;;;21.99;44.56;102525.69;5022250;28;20030;-70
2022/10/09 09:12:32;;;;;;;3.17;1.90;;;;;;;22.00;44.54;102524.69;4994919;28;20037;-70
2022/10/09 09:15:03;;;;;;;2.95;2.05;;;;;;;22.01;44.29;102523.69;5009599;28;20041;-70
2022/10/09 09:17:58;;;;;;;2.40;1.67;;;;;;;21.96;44.28;102517.19;5014366;28;20076;-71
2022/10/09 09:20:29;;;;;;;2.17;1.80;;;;;;;21.98;44.33;102516.06;5016350;28;20453;-70
2022/10/09 09:22:57;;;;;;;1.92;1.77;;;;;;;21.99;44.32;102512.41;5013381;28;20069;-69
2022/10/09 09:25:29;;;;;;;3.20;2.00;;;;;;;21.99;44.48;102515.06;5012266;28;20037;-69
2022/10/09 09:28:09;;;;;;;2.53;1.52;;;;;;;21.96;44.48;102503.94;4989958;28;20128;-69
2022/10/09 09:30:43;;;;;;;3.35;2.00;;;;;;;22.00;43.98;102514.06;5014632;28;20076;-69
2022/10/09 09:33:15;;;;;;;2.50;1.85;;;;;;;21.98;44.28;102512.56;5015078;28;20064;-70
2022/10/09 09:36:02;;;;;;;2.67;1.80;;;;;;;21.97;44.24;102505.59;5013414;28;20092;-69
2022/10/09 09:38:28;;;;;;;2.60;1.63;;;;;;;21.99;44.18;102509.75;5014077;28;20037;-69
2022/10/09 09:40:53;;;;;;;3.25;2.03;;;;;;;21.96;44.42;102506.59;5013612;28;20044;-69
2022/10/09 09:43:23;;;;;;;2.25;1.90;;;;;;;21.93;44.12;102496.28;4987635;28;21049;-69
2022/10/09 09:45:56;;;;;;;2.30;1.67;;;;;;;21.96;44.11;102498.63;5013295;28;20049;-69
2022/10/09 09:48:48;;;;;;;2.80;1.90;;;;;;;21.92;44.20;102492.81;5014956;28;20135;-70
2022/10/09 09:51:23;;;;;;;2.92;1.90;;;;;;;21.98;43.92;102497.47;5012599;28;20053;-69
2022/10/09 09:53:53;;;;;;;1.67;1.52;;;;;;;21.92;44.45;102495.47;5014053;28;20033;-69
2022/10/09 09:56:18;;;;;;;4.47;1.63;;;;;;;21.96;44.35;102501.28;5014129;28;20044;-69
2022/10/09 09:58:47;;;;;;;4.25;1.73;;;;;;;22.00;44.13;102497.31;4983180;28;20049;-70
2022/10/09 10:01:34;;;;;;;2.60;1.65;;;;;;;21.94;43.94;102482.88;5011843;28;20286;-70
2022/10/09 10:04:02;;;;;;;2.95;2.05;;;;;;;21.97;44.09;102487.03;5018479;28;20037;-70
2022/10/09 10:06:42;;;;;;;3.28;1.83;;;;;;;21.97;44.04;102484.38;5007784;28;20049;-70
2022/10/09 10:09:18;;;;;;;2.72;1.40;;;;;;;21.95;44.30;102483.69;5007682;28;20047;-70
2022/10/09 10:11:50;;;;;;;2.97;1.55;;;;;;;21.92;44.26;102476.91;5008917;28;20603;-70
2022/10/09 10:14:16;;;;;;;1.67;1.33;;;;;;;21.95;44.32;102473.94;4998722;28;20029;-70
2022/10/09 10:16:46;;;;;;;2.10;1.60;;;;;;;21.97;44.21;102473.78;5005948;28;20052;-70
2022/10/09 10:19:23;;;;;;;2.88;1.70;;;;;;;21.93;43.89;102469.75;5019389;28;20138;-70
2022/10/09 10:22:02;;;;;;;1.63;1.35;;;;;;;21.95;43.72;102465.13;5017787;28;20949;-70
2022/10/09 10:24:49;;;;;;;3.30;1.83;;;;;;;21.93;43.97;102467.94;5010515;28;20046;-69
2022/10/09 10:27:30;;;;;;;1.95;1.67;;;;;;;21.94;43.92;102456.34;5020287;28;20116;-70
2022/10/09 10:30:02;;;;;;;4.55;2.05;;;;;;;21.97;44.20;102461.34;5012884;28;20128;-69
2022/10/09 10:32:42;;;;;;;4.35;1.90;;;;;;;21.97;43.80;102468.47;5004843;28;20077;-70
2022/10/09 10:35:16;;;;;;;6.30;2.00;;;;;;;21.97;43.73;102460.50;5020553;28;20033;-70
2022/10/09 10:38:12;;;;;;;2.88;1.60;;;;;;;21.96;44.02;102464.16;5017245;28;20064;-69
2022/10/09 10:41:12;;;;;;;2.30;1.70;;;;;;;21.94;43.66;102460.81;5023199;28;20038;-69
2022/10/09 10:43:47;;;;;;;4.10;1.50;;;;;;;21.92;44.13;102460.16;5017833;28;20041;-70
2022/10/09 10:46:24;;;;;;;1.92;1.38;;;;;;;21.93;43.40;102444.06;5021580;28;20049;-70
2022/10/09 10:48:50;;;;;;;3.00;1.60;;;;;;;21.97;43.40;102442.78;5012227;28;20129;-69
2022/10/09 10:51:48;;;;;;;2.50;1.75;;;;;;;21.96;43.34;102445.59;5015555;28;20056;-69
2022/10/09 10:54:25;;;;;;;3.55;1.88;;;;;;;21.98;43.58;102440.94;4977631;28;20050;-70
2022/10/09 10:57:19;;;;;;;2.38;1.83;;;;;;;21.93;43.45;102440.59;5016002;28;20045;-69
2022/10/09 11:00:17;;;;;;;2.35;1.58;;;;;;;21.91;43.42;102442.56;5017864;28;20065;-70
2022/10/09 11:03:04;;;;;;;1.80;1.52;;;;;;;21.95;43.23;102433.31;5008274;28;20055;-70
2022/10/09 11:05:45;;;;;;;3.85;1.80;;;;;;;21.94;43.46;102426.34;4979980;28;20033;-69
2022/10/09 11:08:25;;;;;;;2.95;1.60;;;;;;;21.92;43.42;102421.19;5015435;28;21873;-70
2022/10/09 11:11:25;;;;;;;4.18;1.98;;;;;;;21.95;43.13;102420.88;5015981;28;20235;-69
2022/10/09 11:14:06;;;;;;;3.03;1.60;;;;;;;21.94;43.34;102419.22;5016156;28;20034;-71
2022/10/09 11:17:17;;;;;;;2.92;1.80;;;;;;;21.94;43.32;102407.78;5016184;28;20049;-70
2022/10/09 11:19:54;;;;;;;4.57;1.92;;;;;;;21.94;43.36;102411.25;4989102;28;21846;-70
2022/10/09 11:22:45;;;;;;;2.80;1.67;;;;;;;21.95;43.67;102409.44;5003117;28;20153;-69
2022/10/09 11:25:21;;;;;;;3.60;1.73;;;;;;;21.89;43.57;102400.25;4979286;28;20045;-70
2022/10/09 11:28:03;;;;;;;3.72;1.55;;;;;;;21.95;43.55;102396.19;5018466;28;20095;-70
2022/10/09 11:30:36;;;;;;;2.05;1.63;;;;;;;21.95;43.44;102394.34;5016826;28;20041;-70
2022/10/09 11:33:16;;;;;;;2.67;1.55;;;;;;;21.92;43.30;102385.88;5018677;28;20521;-70
2022/10/09 11:35:57;;;;;;;2.95;1.65;;;;;;;21.93;43.73;102385.72;5013006;28;20064;-69
2022/10/09 11:38:37;;;;;;;2.40;1.50;;;;;;;21.89;43.18;102384.34;4990065;28;20075;-69